TimeCDT,TemperatureF,Dew PointF,Humidity,Sea Level PressureIn,VisibilityMPH,Wind Direction,Wind SpeedMPH,Gust SpeedMPH,PrecipitationIn,Events,Conditions,WindDirDegrees,DateUTC
12:52 AM,35.1,26.1,70,30.05,10.0,East,6.9,-,N/A,,Clear,90,2012-11-02 05:52:00
1:52 AM,33.8,26.6,75,30.02,10.0,East,5.8,-,N/A,,Clear,100,2012-11-02 06:52:00
2:52 AM,32.0,25.0,75,30.05,10.0,East,4.6,-,N/A,,Clear,90,2012-11-02 07:52:00
3:52 AM,34.0,26.1,73,30.03,10.0,East,8.1,-,N/A,,Clear,100,2012-11-02 08:52:00
4:52 AM,34.0,26.1,73,30.01,10.0,ESE,6.9,-,N/A,,Clear,110,2012-11-02 09:52:00
5:52 AM,35.1,26.1,70,30.02,10.0,East,6.9,-,N/A,,Clear,100,2012-11-02 10:52:00
6:52 AM,34.0,26.1,73,30.03,10.0,ESE,4.6,-,N/A,,Clear,110,2012-11-02 11:52:00
7:52 AM,34.0,27.0,75,30.01,10.0,ESE,10.4,-,N/A,,Clear,120,2012-11-02 12:52:00
8:52 AM,36.0,27.0,70,30.04,10.0,ESE,8.1,-,N/A,,Clear,110,2012-11-02 13:52:00
9:52 AM,37.9,27.0,65,30.06,10.0,ESE,9.2,-,N/A,,Clear,110,2012-11-02 14:52:00
10:52 AM,39.9,28.0,63,30.06,10.0,ESE,8.1,-,N/A,,Clear,120,2012-11-02 15:52:00
11:52 AM,42.1,28.0,58,30.06,10.0,SE,9.2,-,N/A,,Clear,130,2012-11-02 16:52:00
12:52 PM,44.1,28.9,55,30.05,10.0,ESE,8.1,-,N/A,,Clear,120,2012-11-02 17:52:00
1:52 PM,46.0,28.0,50,30.04,10.0,East,6.9,-,N/A,,Clear,80,2012-11-02 18:52:00
2:52 PM,48.0,28.0,46,30.03,10.0,East,5.8,-,N/A,,Clear,90,2012-11-02 19:52:00
3:52 PM,48.0,28.0,46,30.02,10.0,ENE,8.1,-,N/A,,Clear,70,2012-11-02 20:52:00
4:52 PM,46.9,28.9,50,30.04,10.0,NE,5.8,-,N/A,,Clear,40,2012-11-02 21:52:00
5:52 PM,46.0,28.9,51,30.05,10.0,NE,5.8,-,N/A,,Clear,50,2012-11-02 22:52:00
6:52 PM,43.0,28.0,56,30.08,10.0,Calm,Calm,-,N/A,,Clear,0,2012-11-02 23:52:00
7:52 PM,39.0,28.0,65,30.11,10.0,North,3.5,-,N/A,,Clear,10,2012-11-03 00:52:00
8:52 PM,39.0,28.0,65,30.11,10.0,NE,4.6,-,N/A,,Clear,50,2012-11-03 01:52:00
9:52 PM,34.0,27.0,75,30.13,10.0,North,6.9,-,N/A,,Clear,350,2012-11-03 02:52:00
10:52 PM,32.0,27.0,82,30.15,10.0,NNW,5.8,-,N/A,,Clear,340,2012-11-03 03:52:00
11:52 PM,32.0,26.6,80,30.12,10.0,North,5.8,-,N/A,,Clear,360,2012-11-03 04:52:00